»·PEaware :: N727FL KRDD-KRNO

N727FL :: KRDD-KRNO

FLIGHT INFORMATION

Flight Status: Arrived
Operator: Privately registered:
United States
More flights under this callsign
Pilot: Spencer F. (32151)
Aircraft: CIRRUS SR-22 TURBO
(S22T)
More flights by this aircraft type
Origin: KRDD Redding Mun
United States
Destination: KRNO Reno/Tahoe Intl
United States
More flights between these airports :: More routes between these airports
Route: KRDD DCT KRNO
File this flight plan on PilotEdge
Remarks:
Altitude:
(Current/Filed)
13,500ft
Speed:
(Current/Filed)
165kts
Departed: 04-Nov-20 09:57 PM
Arrived: 04-Nov-20 10:50 PM
Distance/Time
Traveled:
131nm/0:53
Distance/Time
To Go:
Arrived

Flight Plot

Page will automatically refresh every two minutes.

Flight plan parsing failed; only flown route is shown


Map Options




Map Legend


Flown Route
Filed Route
Departure Airport
Arrival Airport
Navaid (VOR, NDB)
Fix

Horizontal Profiles

Position Reports

Time Latitude Longitude Heading Altitude Ground
Speed
04-Nov-20 21:38 40.519867 -122.292136 177 505ft 0kts
04-Nov-20 21:39 40.519867 -122.292136 177 505ft 0kts
04-Nov-20 21:40 40.519867 -122.292136 177 505ft 0kts
04-Nov-20 21:41 40.519867 -122.292136 177 505ft 0kts
04-Nov-20 21:42 40.519867 -122.292136 177 505ft 0kts
04-Nov-20 21:43 40.519867 -122.292136 177 505ft 0kts
04-Nov-20 21:44 40.519867 -122.292136 177 505ft 0kts
04-Nov-20 21:45 40.519867 -122.292136 177 505ft 0kts
04-Nov-20 21:46 40.519867 -122.292136 177 505ft 0kts
04-Nov-20 21:47 40.519867 -122.292136 177 505ft 0kts
04-Nov-20 21:48 40.519867 -122.292136 177 505ft 0kts
04-Nov-20 21:49 40.519867 -122.292136 177 505ft 0kts
04-Nov-20 21:50 40.519867 -122.292136 177 505ft 0kts
04-Nov-20 21:51 40.519867 -122.292136 177 505ft 0kts
04-Nov-20 21:52 40.520133 -122.292300 2 505ft 14kts
04-Nov-20 21:53 40.520271 -122.293873 269 506ft 0kts
04-Nov-20 21:54 40.520271 -122.293873 269 506ft 0kts
04-Nov-20 21:55 40.519787 -122.294927 172 508ft 10kts
04-Nov-20 21:56 40.492654 -122.294584 174 1227ft 124kts
04-Nov-20 21:57 40.483033 -122.250305 115 2391ft 135kts
04-Nov-20 21:58 40.463882 -122.207613 120 3584ft 136kts
04-Nov-20 21:59 40.445097 -122.163799 118 4676ft 138kts
04-Nov-20 22:00 40.426718 -122.119287 118 5695ft 139kts
04-Nov-20 22:01 40.408819 -122.073714 118 6618ft 141kts
04-Nov-20 22:02 40.391204 -122.027547 118 7454ft 142kts
04-Nov-20 22:03 40.373567 -121.980810 118 8206ft 144kts
04-Nov-20 22:04 40.355896 -121.933218 118 8878ft 145kts
04-Nov-20 22:05 40.338463 -121.885209 117 9493ft 147kts
04-Nov-20 22:06 40.321031 -121.836300 118 10055ft 149kts
04-Nov-20 22:07 40.303254 -121.787215 118 10826ft 134kts
04-Nov-20 22:08 40.288444 -121.743419 117 11924ft 132kts
04-Nov-20 22:09 40.273332 -121.698494 118 12869ft 137kts
04-Nov-20 22:10 40.257624 -121.651879 118 13680ft 149kts
04-Nov-20 22:11 40.238674 -121.597455 117 13763ft 173kts
04-Nov-20 22:12 40.219837 -121.543426 117 13769ft 161kts
04-Nov-20 22:13 40.200278 -121.488049 118 13777ft 171kts
04-Nov-20 22:14 40.179697 -121.430858 117 13761ft 173kts
04-Nov-20 22:15 40.159438 -121.374694 118 13762ft 168kts
04-Nov-20 22:16 40.139606 -121.319225 117 13768ft 169kts
04-Nov-20 22:17 40.119647 -121.263884 117 13763ft 166kts
04-Nov-20 22:18 40.099984 -121.209518 117 13784ft 167kts
04-Nov-20 22:19 40.079766 -121.153876 118 13767ft 170kts
04-Nov-20 22:20 40.059434 -121.098032 115 13759ft 169kts
04-Nov-20 22:21 40.041351 -121.040716 114 13762ft 170kts
04-Nov-20 22:22 40.023413 -120.983841 114 13766ft 169kts
04-Nov-20 22:23 40.005830 -120.928959 114 13538ft 158kts
04-Nov-20 22:24 39.989048 -120.876684 114 13245ft 154kts
04-Nov-20 22:25 39.972335 -120.825467 114 12940ft 153kts
04-Nov-20 22:26 39.955569 -120.774540 114 12645ft 152kts
04-Nov-20 22:27 39.939904 -120.726847 114 12787ft 139kts
04-Nov-20 22:28 39.925572 -120.681882 114 13035ft 118kts
04-Nov-20 22:29 39.913090 -120.642490 115 13390ft 117kts
04-Nov-20 22:30 39.901249 -120.603568 114 13665ft 122kts
04-Nov-20 22:31 39.887316 -120.558951 114 13672ft 144kts
04-Nov-20 22:32 39.871003 -120.506933 114 13654ft 159kts
04-Nov-20 22:33 39.854087 -120.453176 114 13665ft 161kts
04-Nov-20 22:34 39.837330 -120.399966 114 13673ft 160kts
04-Nov-20 22:35 39.820422 -120.346146 114 13663ft 159kts
04-Nov-20 22:36 39.803441 -120.292715 114 13664ft 160kts
04-Nov-20 22:37 39.786351 -120.239316 114 13663ft 160kts
04-Nov-20 22:38 39.768858 -120.185782 114 12761ft 157kts
04-Nov-20 22:39 39.751222 -120.134258 114 11763ft 155kts
04-Nov-20 22:40 39.733463 -120.083209 114 10762ft 154kts
04-Nov-20 22:41 39.715618 -120.032325 114 9761ft 154kts
04-Nov-20 22:42 39.689996 -119.987798 131 8761ft 154kts
04-Nov-20 22:43 39.661938 -119.945784 130 7885ft 154kts
04-Nov-20 22:44 39.632759 -119.900342 129 7765ft 166kts
04-Nov-20 22:45 39.603483 -119.854012 128 7757ft 165kts
04-Nov-20 22:46 39.571728 -119.811499 136 6864ft 161kts
04-Nov-20 22:47 39.539900 -119.776884 140 5356ft 135kts
04-Nov-20 22:48 39.511709 -119.766757 177 4420ft 43kts
04-Nov-20 22:49 39.510974 -119.765536 90 4421ft 0kts
04-Nov-20 22:50 39.507812 -119.765489 181 4418ft 34kts
04-Nov-20 22:51 39.505715 -119.765129 242 4413ft 0kts

Navigation Log

Ident Type
Flight plan parsing failed, navigation log unavailable